Архив погоды в Кологриве

Метеограмма Кологрив
Пятница, 24 Мая
Время местн. Темп Ветер Видим Явления Облачность нижн/средн/верх Атм. давл. Влжн Точка росы ВНГО R Сост. почвы Tg s
Напр Скр Прв ур.ст ур.м изм
09:00 +6.8° С 2 - 15 км - переменная облачность 748 762 +0.5 47% -3.6° 600 м - - - -
06:00 -0.3° З 1 - 15 км - ясно 748 762 +1.1 95% -1° более 2.5 км - Влажная (без луж) - -
03:00 -3.1° штиль 0 - 10 км - ясно 747 761 +1.1 100% -3.1° более 2.5 км - - - -
00:00 -1.3° С 1 - 10 км - ясно 746 760 +1.7 100% -1.3° более 2.5 км - - - -
Четверг, 23 Мая
Время местн. Темп Ветер Видим Явления Облачность нижн/средн/верх Атм. давл. Влжн Точка росы ВНГО R Сост. почвы Tg s
Напр Скр Прв ур.ст ур.м изм
21:00 +2.1° штиль 0 - 10 км - переменная облачность 744 758 +1.4 98% +1.8° более 2.5 км - - - -
18:00 +7.2° С 2 - 15 км - переменная облачность 743 756 +1.1 73% +2.7° 600 м - - - -
15:00 +7.6° С 3 - 10 км дождь облачно 741 755 +1.5 95% +6.9° - - - - -
12:00 +10.8° С 2 - 8 км слабый непрерывный дождь {ливневые осадки} облачно 740 753 +0.5 96% +10.2° 600 м - - - -
09:00 +11.4° штиль 0 - 8 км слабый ливневый дождь облачно 739 753 -0.5 98% +11.1° 600 м - - - -
06:00 +10.9° Ю,Ю-З 1 - 10 км - облачно 740 753 -1.5 95% +10.2° 600 м - Влажная (без луж) - -
03:00 +8.8° штиль 0 - 10 км - облачно 741 755 -1.3 99% +8.6° - - - - -
00:00 +8.9° штиль 0 - 10 км - облачно с прояснениями 743 756 -0.8 96% +8.3° - - - - -
Среда, 22 Мая
Время местн. Темп Ветер Видим Явления Облачность нижн/средн/верх Атм. давл. Влжн Точка росы ВНГО R Сост. почвы Tg s
Напр Скр Прв ур.ст ур.м изм
21:00 +11.1° штиль 0 - 10 км - облачно с прояснениями 744 757 -0.3 85% +8.7° - - - - -
18:00 +16.7° Ю-З 1 - 10 км - облачно 744 757 -0.9 58% +8.5° 600 м - - - -
15:00 +17.6° Ю,Ю-З 2 - 10 км - облачно 745 758 -0.8 50% +7.2° 600 м - - - -
12:00 +16.9° Ю 3 - 15 км - облачно с прояснениями 746 759 -1 46% +5.3° 600 м - - - -
09:00 +14° Ю 1 - 15 км - облачно с прояснениями 747 760 -0.8 64% +7.2° более 2.5 км - - - -
06:00 +8.1° штиль 0 - 10 км - облачно 747 761 -0.7 84% +5.6° 600 м - Влажная (без луж) - -
03:00 +5° штиль 0 - 10 км - облачно 748 762 -0.8 92% +3.8° 600 м - - - -
00:00 +5.5° штиль 0 - 10 км - облачно с прояснениями 749 763 -0.3 83% +2.8° 600 м - - - -
Вторник, 21 Мая
Время местн. Темп Ветер Видим Явления Облачность нижн/средн/верх Атм. давл. Влжн Точка росы ВНГО R Сост. почвы Tg s
Напр Скр Прв ур.ст ур.м изм
21:00 +9.4° С,С-В 1 - 10 км - облачно с прояснениями 749 763 -0.6 64% +2.9° 600 м - - - -
18:00 +16.3° штиль 0 - 10 км - переменная облачность 750 763 -1 27% -2.6° 600 м - - - -
15:00 +17.8° С,С-З 1 - 10 км - переменная облачность 751 764 -1 21% -4.9° 600 м - - - -
12:00 +15.4° З 1 - 10 км - переменная облачность 752 765 -1.1 25% -4.5° 600 м - - - -
09:00 +12.7° З 1 - 15 км - переменная облачность 753 766 -0.2 30% -4.2° более 2.5 км - - - -
06:00 +1.2° штиль 0 - 15 км - переменная облачность 753 767 +0.4 90% -0.2° более 2.5 км - Влажная (без луж) - -